WXBOT messages


fromtotime message
WXBOT KB4JGG-9 05/27 16:38:39z Send another Canal Winchester OH. This Afternoon,Partly Sunny High 84{BC
WXBOT KB1OZM-7 05/27 16:22:24z Send another @0,fair{BB
WXBOT KB1OZM-7 05/27 16:22:19z Send another Currently at Fitchburg, Fitchburg Municipal Airport, Temp:85 wind:0{BA
WXBOT KN4ZXK-9 05/27 16:15:29z Send another n,T-storms Likely 60% High 91{AZ
WXBOT KN4ZXK-9 05/27 16:15:24z Send another 5 Miles SE Azalea Park FL. Hazardous Weather Outlook, This Afternoo{AY
WXBOT KN4ZXK-9 05/27 16:14:27z Send another n,T-storms Likely 60% High 92{AX
WXBOT KN4ZXK-9 05/27 16:14:22z Send another 3 Miles SSW Union Park FL. Hazardous Weather Outlook, This Afternoo{AW
WXBOT KN4ZXK-9 05/27 16:12:53z Send another n,T-storms Likely 60% High 92{AV
WXBOT KN4ZXK-9 05/27 16:12:48z Send another 3 Miles SSW Union Park FL. Hazardous Weather Outlook, This Afternoo{AU
WXBOT KN4ZXK-9 05/27 16:01:04z Send another oon,T-storms Likely 60% High 92{AT
WXBOT KN4ZXK-9 05/27 16:00:59z Send another 3 Miles E Winter Springs FL. Hazardous Weather Outlook, This Aftern{AS
WXBOT KD2OIE 05/27 16:00:14z Send another ly cloudy{AR
WXBOT KD2OIE 05/27 16:00:09z Send another Currently at Lexington Blue Grass Airport, Temp:75 wind:200@10,most{AQ
KD2OIE WXBOT 05/27 16:00:01z Reply now{13
WXBOT AF7NU 05/27 15:48:21z Send another 3 Miles NE Corvallis OR. Today,Sunny High 81{AP
WXBOT AF7NU 05/27 15:47:16z Send another 3 Miles NE Corvallis OR. Today,Sunny High 81{AO
WXBOT AF7NU 05/27 15:45:06z Send another 3 Miles NE Corvallis OR. Today,Sunny High 81{AN
WXBOT AF7NU 05/27 15:44:04z Send another 3 Miles NE Corvallis OR. Today,Sunny High 81{AM
WXBOT KD2LPM-7 05/27 15:23:11z Send another 5 to 9 mph.{AL
WXBOT KD2LPM-7 05/27 15:23:06z Send another Whitestone NY. Today,Partly sunny, with a high near 73. South wind{AK
KD2LPM-7 WXBOT 05/27 15:22:58z Reply KD2LPM-7 full{35
WXBOT KB3KBR-11 05/27 15:15:54z Send another und 9 mph.{AJ
WXBOT KB3KBR-11 05/27 15:15:49z Send another Andover OH. Today,Partly sunny, with a high near 84. South wind aro{AI
KB3KBR-11 WXBOT 05/27 15:15:41z Reply n8xua-3 full{95
WXBOT KB3KBR-11 05/27 15:15:12z Send another rms.{AH
WXBOT KB3KBR-11 05/27 15:15:07z Send another nd quarter of an inch, except higher amounts possible in thundersto{AG
WXBOT KB3KBR-11 05/27 15:15:02z Send another nce of precipitation is 70%. New rainfall amounts between a tenth a{AF
WXBOT KB3KBR-11 05/27 15:14:57z Send another m wind becoming south southeast around 5 mph in the afternoon. Cha{AE
WXBOT KB3KBR-11 05/27 15:14:52z Send another a thunderstorm after 1pm. Mostly cloudy, with a high near 70. Cal{AD
WXBOT KB3KBR-11 05/27 15:14:47z Send another ance of showers and thunderstorms, then showers likely and possibly{AC
WXBOT KB3KBR-11 05/27 15:14:42z Send another 4 Miles SW Valley Springs AR. Hazardous Weather Outlook, Today,A ch{AB
KB3KBR-11 WXBOT 05/27 15:14:35z Reply ea boat full{94
WXBOT KB3KBR-11 05/27 15:14:06z Send another rms.{AA
WXBOT KB3KBR-11 05/27 15:14:01z Send another nd quarter of an inch, except higher amounts possible in thundersto{ZY
WXBOT KB3KBR-11 05/27 15:13:56z Send another nce of precipitation is 70%. New rainfall amounts between a tenth a{ZX
WXBOT KB3KBR-11 05/27 15:13:51z Send another m wind becoming south southeast around 5 mph in the afternoon. Cha{ZW
WXBOT KB3KBR-11 05/27 15:13:46z Send another a thunderstorm after 1pm. Mostly cloudy, with a high near 70. Cal{ZV
WXBOT KB3KBR-11 05/27 15:13:41z Send another ance of showers and thunderstorms, then showers likely and possibly{ZU
WXBOT KB3KBR-11 05/27 15:13:36z Send another 4 Miles SW Valley Springs AR. Hazardous Weather Outlook, Today,A ch{ZT
WXBOT KB3KBR-11 05/27 15:01:40z Send another east wind around 7 mph.{ZS
WXBOT KB3KBR-11 05/27 15:01:35z Send another Woodland Heights PA. Today,Partly sunny, with a high near 81. South{ZR
KB3KBR-11 WXBOT 05/27 15:01:26z Reply full{92
WXBOT KD2SSE-9 05/27 14:25:15z Send another 2 Miles NE Voorhees NJ. Today,Patchy Fog then Mostly Cloudy High 79{ZQ
WXBOT KD2SSE-9 05/27 14:24:30z Send another 2 Miles NE Voorhees NJ. Today,Patchy Fog then Mostly Cloudy High 79{ZP
WXBOT KD2SSE-9 05/27 14:24:22z Send another 2 Miles NE Voorhees NJ. Today,Patchy Fog then Mostly Cloudy High 79{ZO
KD2SSE-9 WXBOT 05/27 14:24:15z Reply 3{04
WXBOT KE7FSD-7 05/27 13:18:29z Send another igh 107{ZN
WXBOT KE7FSD-7 05/27 13:18:23z Send another 5 Miles S Paradise Valley AZ. Excessive Heat Warning, Today,Sunny H{ZM
KE7FSD-7 WXBOT 05/27 13:18:15z Reply today{42
WXBOT OM8AKX-1 05/27 12:34:42z Send another Sorry, unable to get a forecast for location 48.68033/21.29633{ZL
WXBOT OM8AKX-1 05/27 12:33:11z Send another Sorry, unable to get a forecast for location 48.68033/21.29633{ZK
WXBOT WA1GOV-1 05/27 12:03:06z Send another 2 Miles NW Epsom NH. Hazardous Weather Outlook, Today,Hot High 90
WXBOT KO4CWF-2 05/27 11:33:52z Send another 3 Miles WNW South Congaree SC. Today,Chance Showers 40% High 78{ZJ
WXBOT WA1GOV-1 05/27 11:25:10z Send another High 83
WXBOT WA1GOV-1 05/27 11:25:05z Send another East Taunton MA. Special Weather Statement, Today,Decreasing Clouds
WXBOT WA1GOV-1 05/27 11:23:16z Send another fog
WXBOT WA1GOV-1 05/27 11:23:11z Send another Currently at Taunton, Taunton Municipal Airport, Temp:59 wind:0@0,
WXBOT KC1HHO-7 05/27 10:48:53z Send another ly Sunny High 84{ZI
WXBOT KC1HHO-7 05/27 10:48:48z Send another Quincy MA. Special Weather Statement, Thursday,Patchy Fog then Part{ZH
KC1HHO-7 WXBOT 05/27 10:48:40z Reply 02170 thursday{89
WXBOT KC1HHO-7 05/27 10:46:44z Send another ly Sunny High 84{ZG
WXBOT KC1HHO-7 05/27 10:46:39z Send another Quincy MA. Special Weather Statement, Thursday,Patchy Fog then Part{ZF
WXBOT KC1HHO-7 05/27 10:45:40z Send another ly Sunny High 84{ZE
WXBOT KC1HHO-7 05/27 10:45:35z Send another Quincy MA. Special Weather Statement, Thursday,Patchy Fog then Part{ZD
WXBOT KC1HHO-7 05/27 10:44:36z Send another ly Sunny High 84{ZC
WXBOT KC1HHO-7 05/27 10:44:32z Send another Quincy MA. Special Weather Statement, Thursday,Patchy Fog then Part{ZB
WXBOT KC1HHO-7 05/27 10:43:33z Send another ly Sunny High 84{ZA
WXBOT KC1HHO-7 05/27 10:43:28z Send another Quincy MA. Special Weather Statement, Thursday,Patchy Fog then Part{YZ
WXBOT K0SHD-3 05/27 10:41:09z Send another KBKX 271037Z AUTO 00000KT 1/4SM FG OVC002 09/09 A2991 RMK AO2 RVRNO{YY
K0SHD-3 WXBOT 05/27 10:41:03z Reply kbkx{96
WXBOT KO4CWF-2 05/27 10:40:45z Send another 3 Miles WNW South Congaree SC. Today,Chance Showers 40% High 78{YX
WXBOT K0SHD-3 05/27 10:38:00z Send another KBKX 271025Z AUTO 00000KT 3/4SM BR BKN002 09/09 A2990 RMK AO2 RVRNO{YW
K0SHD-3 WXBOT 05/27 10:37:54z Reply kbkx{95
WXBOT K0SHD-3 05/27 10:36:57z Send another KBKX 271025Z AUTO 00000KT 3/4SM BR BKN002 09/09 A2990 RMK AO2 RVRNO{YV
WXBOT K0SHD-3 05/27 10:35:53z Send another KBKX 271025Z AUTO 00000KT 3/4SM BR BKN002 09/09 A2990 RMK AO2 RVRNO{YU
WXBOT K0SHD-3 05/27 10:34:21z Send another KBKX 271025Z AUTO 00000KT 3/4SM BR BKN002 09/09 A2990 RMK AO2 RVRNO{YT
WXBOT K0SHD-3 05/27 10:31:43z Send another KBKX 271025Z AUTO 00000KT 3/4SM BR BKN002 09/09 A2990 RMK AO2 RVRNO{YS
K0SHD-3 WXBOT 05/27 10:31:37z Reply kbkx{94
WXBOT K0SHD-3 05/27 10:30:35z Send another KBKX 271025Z AUTO 00000KT 3/4SM BR BKN002 09/09 A2990 RMK AO2 RVRNO{YR
WXBOT KC3NZY-9 05/27 09:13:26z Send another Low 60{YQ
WXBOT KC3NZY-9 05/27 09:13:21z Send another 2 Miles NW Charlestown MD. Dense Fog Advisory, Overnight,Dense Fog{YP
WXBOT KC3NZY-9 05/27 09:13:14z Send another Low 60{YO
WXBOT KC3NZY-9 05/27 09:13:09z Send another 2 Miles NW Charlestown MD. Dense Fog Advisory, Overnight,Dense Fog{YN
WXBOT KE0SJK-7 05/27 07:48:22z Send another theast wind around 6 mph.{YM
WXBOT KE0SJK-7 05/27 07:48:18z Send another ce of showers and thunderstorms. Cloudy, with a low around 67. Sou{YL
WXBOT KE0SJK-7 05/27 07:48:12z Send another Oakville MO. Hazardous Weather Outlook, Overnight,A 50 percent chan{YK
KE0SJK-7 WXBOT 05/27 07:48:05z Reply 63129 full{41
WXBOT VE7TEQ-9 05/27 07:34:17z Send another in.{YJ
WXBOT VE7TEQ-9 05/27 07:34:12z Send another DW2168 44,wind:161@8 g15,1021.8mbar,rh:87%,rain:1h:0.00in.,24h:0.02{YI
WXBOT VE7TEQ-9 05/27 06:43:02z Send another in.{YH
WXBOT VE7TEQ-9 05/27 06:42:57z Send another DW2168 47,wind:151@6 g17,1021.4mbar,rh:78%,rain:1h:0.00in.,24h:0.02{YG
WXBOT VE7TEQ-9 05/27 06:41:52z Send another in.{YF
WXBOT VE7TEQ-9 05/27 06:41:47z Send another DW2168 47,wind:151@6 g17,1021.4mbar,rh:78%,rain:1h:0.00in.,24h:0.02{YE
WXBOT VE7TEQ-9 05/27 06:41:12z Send another in.{YD
WXBOT VE7TEQ-9 05/27 06:41:07z Send another DW2168 47,wind:151@6 g17,1021.4mbar,rh:78%,rain:1h:0.00in.,24h:0.02{YC
VE7TEQ-9 WXBOT 05/27 06:40:59z Reply cwop{14
WXBOT VE7TEQ-9 05/27 05:58:20z Send another in.{YB
WXBOT VE7TEQ-9 05/27 05:58:15z Send another DW2168 49,wind:152@8 g17,1020.6mbar,rh:75%,rain:1h:0.00in.,24h:0.02{YA
WXBOT VE7TEQ-9 05/27 05:56:50z Send another in.{XZ
WXBOT VE7TEQ-9 05/27 05:56:45z Send another DW2168 49,wind:152@8 g17,1020.6mbar,rh:75%,rain:1h:0.00in.,24h:0.02{XY